createdAt,value
2018-04-15T00:02:28.303Z,77.17
2018-04-15T00:05:12.899Z,77.17
2018-04-15T00:07:14.697Z,77.74
2018-04-15T00:09:16.941Z,77.36
2018-04-15T00:11:18.690Z,77.17
2018-04-15T00:13:20.651Z,77.17
2018-04-15T00:15:22.540Z,76.98
2018-04-15T00:18:07.366Z,76.79
2018-04-15T00:20:52.188Z,76.60
2018-04-15T00:23:36.498Z,76.60
2018-04-15T00:26:21.712Z,76.79
2018-04-15T00:29:07.283Z,76.79
2018-04-15T00:31:52.270Z,77.17
2018-04-15T00:34:37.414Z,77.55
2018-04-15T00:36:39.074Z,77.45
2018-04-15T00:38:40.986Z,77.45
2018-04-15T00:40:42.868Z,77.65
2018-04-15T00:43:30.081Z,77.65
2018-04-15T00:46:14.314Z,78.03
2018-04-15T00:48:59.274Z,78.51
2018-04-15T00:51:45.540Z,78.31
2018-04-15T00:54:30.673Z,78.60
2018-04-15T00:56:32.967Z,78.03
2018-04-15T00:58:34.858Z,77.84
2018-04-15T01:01:18.759Z,78.41
2018-04-15T01:04:05.080Z,78.51
2018-04-15T01:06:50.876Z,78.51
2018-04-15T01:08:53.327Z,78.60
2018-04-15T01:10:55.497Z,78.51
2018-04-15T01:13:40.833Z,78.03
2018-04-15T01:16:25.505Z,78.03
2018-04-15T01:19:09.830Z,77.70
2018-04-15T01:21:55.297Z,82.30
2018-04-15T01:23:56.870Z,85.21
2018-04-15T01:26:41.921Z,85.06
2018-04-15T01:28:43.671Z,85.50
2018-04-15T01:31:29.401Z,86.49
2018-04-15T01:34:54.566Z,84.40
2018-04-15T01:38:20.964Z,84.97
2018-04-15T01:41:07.554Z,84.97
2018-04-15T01:43:53.963Z,84.82
2018-04-15T01:46:39.865Z,84.25
2018-04-15T01:49:25.063Z,84.96
2018-04-15T01:52:10.125Z,86.49
2018-04-15T01:54:55.923Z,87.92
2018-04-15T01:57:41.332Z,88.30
2018-04-15T02:00:25.840Z,88.78
2018-04-15T02:03:11.451Z,88.68
2018-04-15T02:06:37.113Z,89.64
2018-04-15T02:09:22.927Z,89.16
2018-04-15T02:12:07.467Z,89.16
2018-04-15T02:14:52.222Z,89.25
2018-04-15T02:17:36.296Z,89.06
2018-04-15T02:19:38.120Z,88.97
2018-04-15T02:22:22.235Z,89.64
2018-04-15T02:25:49.213Z,89.83
2018-04-15T02:28:33.949Z,90.21
2018-04-15T02:30:35.491Z,90.31
2018-04-15T02:33:21.601Z,89.83
2018-04-15T02:35:23.327Z,89.83
2018-04-15T02:38:09.709Z,90.40
2018-04-15T02:40:11.784Z,90.59
2018-04-15T02:42:56.285Z,90.78
2018-04-15T02:45:42.824Z,91.26
2018-04-15T02:47:44.887Z,91.74
2018-04-15T02:49:47.197Z,91.16
2018-04-15T02:52:32.176Z,91.36
2018-04-15T02:54:33.834Z,91.45
2018-04-15T02:56:36.173Z,91.64
2018-04-15T02:59:20.559Z,91.64
2018-04-15T03:02:07.389Z,91.55
2018-04-15T03:04:53.869Z,91.83
2018-04-15T03:06:55.516Z,91.64
2018-04-15T03:09:41.679Z,91.64
2018-04-15T03:12:26.880Z,91.74
2018-04-15T03:15:13.295Z,91.55
2018-04-15T03:17:59.050Z,92.02
2018-04-15T03:20:43.984Z,91.26
2018-04-15T03:23:28.639Z,91.55
2018-04-15T03:26:16.071Z,91.93
2018-04-15T03:29:03.437Z,92.21
2018-04-15T03:31:47.793Z,92.02
2018-04-15T03:34:32.242Z,91.55
2018-04-15T03:37:19.679Z,91.45
2018-04-15T03:40:03.891Z,92.02
2018-04-15T03:42:51.579Z,92.02
2018-04-15T03:45:37.075Z,92.21
2018-04-15T03:48:21.219Z,92.12
2018-04-15T03:51:07.880Z,92.21
2018-04-15T03:53:52.410Z,92.21
2018-04-15T03:55:54.171Z,92.31
2018-04-15T03:58:40.587Z,91.55
2018-04-15T04:01:29.466Z,91.55
2018-04-15T04:04:13.615Z,92.60
2018-04-15T04:06:59.492Z,93.31
2018-04-15T04:09:45.716Z,93.17
2018-04-15T04:12:32.017Z,93.02
2018-04-15T04:15:21.018Z,93.26
2018-04-15T04:17:22.754Z,93.41
2018-04-15T04:20:09.753Z,92.65
2018-04-15T04:22:56.445Z,94.84
2018-04-15T04:25:44.725Z,94.93
2018-04-15T04:28:29.777Z,94.74
2018-04-15T04:31:15.522Z,95.46
2018-04-15T04:34:00.648Z,96.13
2018-04-15T04:36:48.109Z,96.51
2018-04-15T04:39:32.096Z,96.17
2018-04-15T04:42:18.912Z,95.51
2018-04-15T04:45:03.034Z,96.13
2018-04-15T04:47:49.417Z,96.37
2018-04-15T04:49:51.697Z,96.41
2018-04-15T04:52:39.100Z,96.27
2018-04-15T04:55:26.480Z,96.37
2018-04-15T04:58:10.679Z,96.37
2018-04-15T05:00:56.321Z,95.56
2018-04-15T05:03:43.147Z,95.89
2018-04-15T05:06:27.312Z,96.80
2018-04-15T05:09:13.855Z,97.66
2018-04-15T05:11:59.235Z,97.56
2018-04-15T05:14:43.777Z,97.85
2018-04-15T05:17:30.854Z,99.56
2018-04-15T05:20:15.833Z,99.75
2018-04-15T05:22:17.529Z,99.99
2018-04-15T05:25:04.197Z,99.99
2018-04-15T05:27:51.230Z,99.99
2018-04-15T05:29:52.929Z,99.99
2018-04-15T05:32:39.231Z,99.99
2018-04-15T05:35:25.126Z,99.99
2018-04-15T05:38:10.931Z,99.99
2018-04-15T05:40:12.436Z,99.99
2018-04-15T05:42:58.790Z,99.99
2018-04-15T05:45:43.111Z,99.99
2018-04-15T05:48:30.492Z,99.99
2018-04-15T05:51:14.981Z,99.99
2018-04-15T05:54:40.770Z,99.99
2018-04-15T05:57:27.130Z,99.99
2018-04-15T05:59:28.875Z,99.99
2018-04-15T06:02:13.817Z,99.99
2018-04-15T06:04:59.819Z,99.99
2018-04-15T06:07:44.329Z,99.99
2018-04-15T06:10:28.718Z,99.99
2018-04-15T06:13:14.341Z,99.99
2018-04-15T06:15:59.413Z,99.99
2018-04-15T06:18:45.759Z,99.99
2018-04-15T06:21:43.098Z,99.99
2018-04-15T06:24:52.661Z,99.99
2018-04-15T06:27:40.350Z,99.99
2018-04-15T06:30:27.468Z,99.99
2018-04-15T06:33:53.566Z,99.99
2018-04-15T06:37:42.688Z,99.99
2018-04-15T06:40:10.757Z,99.99
2018-04-15T06:42:13.112Z,99.99
2018-04-15T06:44:16.467Z,99.99
2018-04-15T06:46:20.552Z,99.99
2018-04-15T06:48:22.457Z,99.99
2018-04-15T06:51:12.845Z,99.99
2018-04-15T06:53:15.038Z,99.99
2018-04-15T06:55:28.304Z,99.99
2018-04-15T06:57:30.192Z,99.99
2018-04-15T12:31:46.393Z,62.80
2018-04-15T12:33:50.063Z,62.58
2018-04-15T12:35:51.900Z,62.87
2018-04-15T12:37:54.895Z,62.96
2018-04-15T12:39:56.816Z,63.06
2018-04-15T12:41:58.696Z,63.25
2018-04-15T12:44:01.375Z,62.64
2018-04-15T12:46:04.528Z,63.22
2018-04-15T12:48:06.654Z,63.79
2018-04-15T12:50:08.891Z,63.79
2018-04-15T12:52:10.912Z,63.41
2018-04-15T12:54:13.699Z,63.12
2018-04-15T12:56:15.611Z,62.77
2018-04-15T12:58:17.502Z,61.91
2018-04-15T13:00:19.424Z,62.32
2018-04-15T13:02:21.466Z,61.46
2018-04-15T13:04:23.940Z,60.11
2018-04-15T13:06:25.703Z,59.66
2018-04-15T13:08:27.837Z,59.27
2018-04-15T13:10:30.158Z,59.37
2018-04-15T13:12:32.420Z,60.42
2018-04-15T13:14:34.753Z,58.60
2018-04-15T13:16:36.627Z,57.45
2018-04-15T13:18:38.606Z,56.48
2018-04-15T13:20:41.174Z,56.38
2018-04-15T13:22:43.416Z,57.86
2018-04-15T13:24:45.671Z,58.34
2018-04-15T13:26:48.015Z,57.69
2018-04-15T13:28:49.945Z,57.60
2018-04-15T13:31:34.371Z,55.38
2018-04-15T13:33:35.779Z,56.63
2018-04-15T13:35:37.196Z,57.09
2018-04-15T13:37:38.634Z,57.67
2018-04-15T13:39:40.509Z,57.28
2018-04-15T13:41:42.062Z,56.12
2018-04-15T13:43:44.072Z,57.18
2018-04-15T13:45:45.580Z,55.87
2018-04-15T13:47:47.039Z,56.15
2018-04-15T13:49:48.562Z,56.63
2018-04-15T13:51:50.363Z,52.42
2018-04-15T13:53:52.445Z,53.87
2018-04-15T13:55:54.005Z,52.55
2018-04-15T13:58:36.648Z,51.97
2018-04-15T14:02:41.043Z,53.29
2018-04-15T14:04:42.572Z,54.52
2018-04-15T14:06:44.195Z,53.55
2018-04-15T14:08:45.900Z,53.27
2018-04-15T14:11:29.186Z,53.00
2018-04-15T14:13:30.808Z,52.23
2018-04-15T14:15:34.063Z,53.55
2018-04-15T14:17:35.681Z,55.00
2018-04-15T14:19:37.330Z,54.68
2018-04-15T14:21:39.200Z,54.20
2018-04-15T14:23:41.106Z,54.00
2018-04-15T14:26:24.006Z,55.09
2018-04-15T14:28:25.597Z,55.09
2018-04-15T14:30:27.293Z,53.74
2018-04-15T14:32:29.169Z,54.13
2018-04-15T14:35:12.604Z,55.55
2018-04-15T14:37:14.608Z,54.58
2018-04-15T14:40:03.086Z,54.97
2018-04-15T14:42:48.737Z,54.87
2018-04-15T14:44:50.417Z,54.97
2018-04-15T14:46:52.495Z,54.87
2018-04-15T14:48:54.318Z,54.87
2018-04-15T14:50:57.220Z,55.07
2018-04-15T14:53:00.017Z,55.16
2018-04-15T14:55:01.536Z,53.72
2018-04-15T14:57:44.639Z,53.72
2018-04-15T15:03:32.005Z,52.18
2018-04-15T15:06:14.490Z,54.30
2018-04-15T15:08:57.222Z,52.95
2018-04-15T15:11:40.393Z,53.43
2018-04-15T15:14:23.700Z,55.19
2018-04-15T15:17:07.853Z,54.71
2018-04-15T15:19:51.449Z,54.49
2018-04-15T15:22:36.623Z,54.22
2018-04-15T15:25:20.730Z,54.49
2018-04-15T15:27:22.476Z,53.43
2018-04-15T15:29:24.277Z,53.62
2018-04-15T15:31:26.207Z,53.81
2018-04-15T15:33:28.483Z,53.81
2018-04-15T15:35:30.438Z,54.10
2018-04-15T15:37:32.787Z,54.20
2018-04-15T15:40:16.953Z,54.20
2018-04-15T15:42:18.463Z,54.68
2018-04-15T15:44:19.949Z,55.13
2018-04-15T15:46:21.394Z,55.71
2018-04-15T15:48:23.594Z,57.06
2018-04-15T15:51:08.611Z,58.02
2018-04-15T15:53:10.045Z,58.12
2018-04-15T15:55:57.343Z,58.02
2018-04-15T15:58:39.591Z,56.67
2018-04-15T16:00:41.077Z,57.18
2018-04-15T16:02:42.834Z,57.09
2018-04-15T16:04:44.770Z,57.47
2018-04-15T16:06:47.060Z,57.86
2018-04-15T16:08:48.826Z,57.09
2018-04-15T16:10:51.049Z,57.37
2018-04-15T16:12:53.206Z,57.47
2018-04-15T16:14:54.917Z,57.76
2018-04-15T16:16:56.586Z,57.47
2018-04-15T16:18:58.363Z,59.11
2018-04-15T16:21:00.425Z,57.25
2018-04-15T16:23:02.165Z,57.35
2018-04-15T16:25:04.608Z,57.83
2018-04-15T16:27:06.315Z,57.64
2018-04-15T16:29:08.105Z,59.08
2018-04-15T16:31:09.916Z,58.40
2018-04-15T16:33:11.667Z,57.35
2018-04-15T16:35:13.316Z,56.99
2018-04-15T16:37:14.992Z,57.47
2018-04-15T16:39:16.632Z,57.28
2018-04-15T16:41:18.428Z,57.09
2018-04-15T16:43:20.100Z,58.63
2018-04-15T16:45:21.920Z,57.83
2018-04-15T16:47:24.169Z,57.92
2018-04-15T16:49:26.041Z,58.60
2018-04-15T16:51:27.776Z,58.12
2018-04-15T16:53:29.525Z,58.40
2018-04-15T16:55:31.489Z,58.98
2018-04-15T16:57:33.347Z,59.75
2018-04-15T16:59:34.903Z,58.79
2018-04-15T17:01:37.259Z,59.08
2018-04-15T17:03:39.045Z,59.08
2018-04-15T17:05:41.604Z,58.50
2018-04-15T17:07:43.725Z,58.89
2018-04-15T17:09:45.887Z,59.27
2018-04-15T17:11:48.733Z,58.82
2018-04-15T17:13:51.827Z,58.72
2018-04-15T17:15:53.579Z,58.92
2018-04-15T17:17:55.431Z,58.82
2018-04-15T17:19:58.007Z,58.63
2018-04-15T17:22:00.305Z,59.69
2018-04-15T17:24:02.283Z,59.49
2018-04-15T17:26:04.144Z,59.49
2018-04-15T17:28:06.729Z,59.11
2018-04-15T17:30:08.495Z,59.30
2018-04-15T17:32:11.749Z,58.82
2018-04-15T17:34:14.493Z,58.63
2018-04-15T17:36:16.380Z,58.63
2018-04-15T17:38:18.305Z,59.11
2018-04-15T17:40:20.677Z,59.75
2018-04-15T17:42:22.405Z,60.42
2018-04-15T17:44:24.341Z,60.33
2018-04-15T17:46:26.352Z,59.56
2018-04-15T17:48:28.655Z,59.94
2018-04-15T17:50:30.580Z,59.85
2018-04-15T17:52:32.297Z,59.75
2018-04-15T17:54:35.028Z,61.19
2018-04-15T17:56:37.215Z,61.00
2018-04-15T17:58:39.077Z,60.42
2018-04-15T18:00:41.228Z,61.39
2018-04-15T18:02:42.821Z,61.77
2018-04-15T18:04:44.278Z,61.10
2018-04-15T18:06:45.869Z,61.00
2018-04-15T18:08:47.714Z,60.33
2018-04-15T18:10:49.545Z,60.72
2018-04-15T18:12:51.326Z,61.10
2018-04-15T18:14:52.998Z,62.13
2018-04-15T18:16:54.500Z,63.28
2018-04-15T18:18:56.262Z,64.34
2018-04-15T18:20:57.732Z,63.48
2018-04-15T18:22:59.575Z,63.76
2018-04-15T18:25:01.281Z,64.34
2018-04-15T18:27:03.034Z,64.63
2018-04-15T18:29:04.720Z,65.11
2018-04-15T18:31:06.443Z,64.25
2018-04-15T18:33:08.825Z,64.53
2018-04-15T18:35:10.795Z,64.89
2018-04-15T18:37:12.588Z,65.84
2018-04-15T18:39:15.175Z,66.27
2018-04-15T18:41:16.890Z,66.23
2018-04-15T18:43:18.584Z,66.14
2018-04-15T18:45:20.189Z,66.42
2018-04-15T18:47:21.991Z,66.14
2018-04-15T18:49:23.775Z,67.00
2018-04-15T18:51:26.171Z,65.27
2018-04-15T18:53:27.943Z,66.81
2018-04-15T18:55:29.657Z,66.81
2018-04-15T18:57:31.292Z,67.19
2018-04-15T18:59:33.602Z,67.86
2018-04-15T19:01:35.415Z,67.77
2018-04-15T19:03:37.104Z,67.86
2018-04-15T19:05:38.750Z,68.25
2018-04-15T19:07:40.541Z,68.35
2018-04-15T19:09:42.263Z,67.86
2018-04-15T19:11:44.008Z,68.25
2018-04-15T19:13:45.864Z,68.54
2018-04-15T19:15:47.695Z,68.06
2018-04-15T19:17:50.012Z,68.35
2018-04-15T19:19:51.912Z,68.25
2018-04-15T19:21:53.761Z,67.58
2018-04-15T19:23:56.135Z,68.63
2018-04-15T19:25:58.140Z,68.63
2018-04-15T19:27:59.973Z,68.12
2018-04-15T19:30:02.461Z,68.21
2018-04-15T19:32:04.169Z,68.60
2018-04-15T19:34:06.012Z,68.89
2018-04-15T19:36:07.677Z,68.89
2018-04-15T19:38:09.452Z,68.70
2018-04-15T19:40:11.965Z,68.98
2018-04-15T19:42:13.974Z,68.79
2018-04-15T19:44:15.774Z,68.21
2018-04-15T19:46:17.918Z,69.27
2018-04-15T19:48:19.706Z,69.27
2018-04-15T19:50:21.945Z,69.75
2018-04-15T19:52:23.718Z,69.18
2018-04-15T19:54:25.464Z,69.08
2018-04-15T19:56:27.654Z,69.81
2018-04-15T19:58:29.209Z,69.53
2018-04-15T20:00:31.110Z,69.62
2018-04-15T20:02:32.923Z,70.01
2018-04-15T20:04:34.485Z,69.91
2018-04-15T20:06:36.795Z,70.68
2018-04-15T20:08:39.000Z,70.49
2018-04-15T20:10:40.536Z,70.78
2018-04-15T20:12:42.636Z,70.97
2018-04-15T20:14:44.330Z,70.97
2018-04-15T20:16:45.986Z,70.49
2018-04-15T20:18:47.656Z,70.58
2018-04-15T20:20:49.463Z,71.55
2018-04-15T20:22:51.119Z,71.73
2018-04-15T20:24:53.045Z,71.64
2018-04-15T20:26:54.668Z,71.83
2018-04-15T20:28:56.457Z,71.64
2018-04-15T20:30:58.302Z,71.93
2018-04-15T20:32:59.887Z,72.41
2018-04-15T20:35:01.575Z,72.02
2018-04-15T20:37:03.409Z,71.93
2018-04-15T20:39:05.102Z,71.80
2018-04-15T20:41:06.828Z,72.56
2018-04-15T20:43:08.636Z,72.95
2018-04-15T20:45:10.227Z,73.52
2018-04-15T20:47:11.710Z,72.28
2018-04-15T20:49:13.323Z,72.56
2018-04-15T20:51:15.170Z,72.75
2018-04-15T20:53:16.996Z,72.85
2018-04-15T20:55:18.776Z,73.14
2018-04-15T20:57:20.402Z,73.81
2018-04-15T20:59:22.175Z,74.01
2018-04-15T21:01:23.869Z,74.01
2018-04-15T21:03:25.677Z,74.48
2018-04-15T21:05:27.516Z,73.62
2018-04-15T21:07:29.381Z,74.29
2018-04-15T21:09:31.245Z,73.91
2018-04-15T21:11:32.875Z,74.01
2018-04-15T21:13:34.774Z,74.10
2018-04-15T21:15:36.550Z,74.10
2018-04-15T21:17:38.272Z,73.91
2018-04-15T21:19:39.826Z,74.29
2018-04-15T21:21:41.487Z,74.29
2018-04-15T21:23:43.193Z,74.58
2018-04-15T21:25:44.954Z,74.77
2018-04-15T21:27:46.629Z,74.29
2018-04-15T21:29:48.174Z,74.54
2018-04-15T21:31:49.980Z,74.64
2018-04-15T21:33:51.819Z,74.35
2018-04-15T21:35:53.616Z,74.35
2018-04-15T21:37:55.270Z,74.26
2018-04-15T21:39:56.974Z,73.77
2018-04-15T21:41:58.770Z,73.77
2018-04-15T21:44:00.684Z,73.97
2018-04-15T21:46:02.380Z,74.16
2018-04-15T21:48:04.196Z,73.87
2018-04-15T21:50:05.891Z,73.58
2018-04-15T21:52:07.609Z,73.68
2018-04-15T21:54:09.535Z,73.30
2018-04-15T21:56:11.368Z,73.30
2018-04-15T21:58:13.333Z,73.10
2018-04-15T22:00:15.254Z,73.20
2018-04-15T22:02:17.495Z,73.49
2018-04-15T22:04:19.193Z,73.20
2018-04-15T22:06:20.954Z,73.39
2018-04-15T22:08:22.754Z,73.58
2018-04-15T22:10:24.469Z,73.30
2018-04-15T22:12:26.135Z,72.72
2018-04-15T22:14:27.893Z,72.24
2018-04-15T22:16:29.705Z,73.00
2018-04-15T22:18:31.516Z,72.91
2018-04-15T22:20:33.316Z,73.00
2018-04-15T22:22:35.141Z,72.81
2018-04-15T22:24:36.775Z,73.30
2018-04-15T22:26:38.391Z,72.81
2018-04-15T22:28:40.124Z,72.81
2018-04-15T22:30:41.754Z,72.91
2018-04-15T22:32:43.502Z,73.10
2018-04-15T22:34:45.153Z,72.91
2018-04-15T22:36:46.959Z,72.91
2018-04-15T22:38:48.673Z,73.20
2018-04-15T22:40:50.455Z,73.10
2018-04-15T22:42:52.335Z,73.20
2018-04-15T22:44:54.058Z,73.39
2018-04-15T22:46:55.785Z,73.26
2018-04-15T22:48:57.492Z,73.83
2018-04-15T22:50:59.160Z,74.22
2018-04-15T22:53:00.670Z,74.22
2018-04-15T22:55:02.487Z,74.12
2018-04-15T22:57:04.235Z,74.31
2018-04-15T22:59:05.855Z,74.22
2018-04-15T23:01:07.549Z,74.51
2018-04-15T23:03:09.240Z,74.12
2018-04-15T23:05:10.929Z,74.12
2018-04-15T23:07:12.774Z,74.12
2018-04-15T23:09:14.440Z,74.22
2018-04-15T23:11:15.952Z,74.02
2018-04-15T23:13:17.752Z,74.22
2018-04-15T23:15:19.623Z,74.12
2018-04-15T23:17:21.428Z,74.79
2018-04-15T23:19:23.197Z,74.85
2018-04-15T23:21:24.810Z,74.47
2018-04-15T23:23:26.475Z,74.47
2018-04-15T23:25:28.186Z,74.95
2018-04-15T23:27:29.970Z,75.33
2018-04-15T23:29:31.838Z,75.14
2018-04-15T23:31:33.594Z,74.76
2018-04-15T23:33:35.349Z,74.95
2018-04-15T23:35:37.185Z,75.52
2018-04-15T23:37:38.839Z,75.33
2018-04-15T23:39:40.517Z,75.62
2018-04-15T23:41:42.343Z,75.52
2018-04-15T23:43:44.161Z,76.00
2018-04-15T23:45:45.895Z,75.90
2018-04-15T23:47:47.609Z,75.33
2018-04-15T23:49:49.283Z,75.23
2018-04-15T23:51:50.961Z,76.00
2018-04-15T23:53:52.772Z,75.14
2018-04-15T23:55:54.578Z,75.71
2018-04-15T23:57:56.269Z,76.19
2018-04-15T23:59:58.082Z,76.39
